Time;durP1;ratioP1;P1;durP2;ratioP2;P2;SDS_P1;SDS_P2;PMS_P1;PMS_P2;Temp;Humidity;BMP_temperature;BMP_pressure;BME280_temperature;BME280_humidity;BME280_pressure;Samples;Min_cycle;Max_cycle;Signal;HPM_P1;HPM_P2
2024/02/15 00:04:11;;;;;;;33.63;19.37;;;;;;;;;;13122769;22;20360;-96
2024/02/15 00:09:15;;;;;;;35.10;20.10;;;;;;;;;;13144613;22;20401;-95
2024/02/15 00:14:18;;;;;;;34.25;19.08;;;;;;;;;;13123193;22;20359;-96
2024/02/15 00:19:21;;;;;;;32.28;18.42;;;;;;;;;;13121008;22;20355;-96
2024/02/15 00:24:25;;;;;;;30.83;18.10;;;;;;;;;;13118485;22;20363;-96
2024/02/15 00:29:29;;;;;;;31.25;18.50;;;;;;;;;;13120680;22;20762;-94
2024/02/15 00:34:31;;;;;;;33.15;18.15;;;;;;;;;;13143028;22;20397;-95
2024/02/15 00:39:35;;;;;;;29.52;17.98;;;;;;;;;;13117598;22;20351;-95
2024/02/15 00:44:37;;;;;;;27.50;17.10;;;;;;;;;;13122187;22;20364;-94
2024/02/15 00:49:39;;;;;;;28.13;16.95;;;;;;;;;;13130723;22;20375;-96
2024/02/15 00:54:43;;;;;;;27.77;16.33;;;;;;;;;;13119665;22;20424;-96
2024/02/15 00:59:46;;;;;;;26.13;16.98;;;;;;;;;;13119304;22;20372;-96
2024/02/15 01:04:49;;;;;;;27.77;16.87;;;;;;;;;;13114814;22;20394;-96
2024/02/15 01:09:53;;;;;;;27.60;16.57;;;;;;;;;;13116709;22;20382;-96
2024/02/15 01:14:55;;;;;;;28.63;17.70;;;;;;;;;;13119320;22;20440;-96
2024/02/15 01:19:57;;;;;;;32.47;17.63;;;;;;;;;;13119720;22;20409;-96
2024/02/15 01:25:01;;;;;;;34.35;18.90;;;;;;;;;;13116279;22;20359;-96
2024/02/15 01:30:05;;;;;;;33.37;18.90;;;;;;;;;;13116129;22;20473;-96
2024/02/15 01:35:08;;;;;;;33.45;19.63;;;;;;;;;;13139444;22;20932;-95
2024/02/15 01:40:14;;;;;;;39.17;21.87;;;;;;;;;;13140339;22;20351;-96
2024/02/15 01:45:16;;;;;;;61.40;29.97;;;;;;;;;;13119549;22;20759;-94
2024/02/15 01:50:21;;;;;;;60.78;29.88;;;;;;;;;;13164407;22;20358;-95
2024/02/15 01:55:25;;;;;;;57.72;30.20;;;;;;;;;;13143484;22;20387;-96
2024/02/15 02:00:28;;;;;;;62.40;29.27;;;;;;;;;;13116673;22;20359;-95
2024/02/15 02:05:31;;;;;;;56.00;28.17;;;;;;;;;;13131045;22;20393;-96
2024/02/15 02:10:35;;;;;;;65.13;28.87;;;;;;;;;;13116245;22;20375;-96
2024/02/15 02:15:37;;;;;;;61.10;28.65;;;;;;;;;;13116307;22;20690;-96
2024/02/15 02:20:39;;;;;;;62.77;29.27;;;;;;;;;;13118739;22;20364;-96
2024/02/15 02:25:46;;;;;;;55.92;29.88;;;;;;;;;;13117490;22;20386;-96
2024/02/15 02:30:48;;;;;;;51.28;27.10;;;;;;;;;;13116823;22;20870;-95
2024/02/15 02:35:51;;;;;;;48.90;26.83;;;;;;;;;;13115637;22;20437;-96
2024/02/15 02:40:54;;;;;;;48.55;25.92;;;;;;;;;;13115824;22;20811;-96
2024/02/15 02:45:56;;;;;;;46.78;24.90;;;;;;;;;;13117687;22;20420;-96
2024/02/15 02:50:59;;;;;;;48.83;26.00;;;;;;;;;;13117196;22;20375;-96
2024/02/15 02:56:03;;;;;;;42.00;24.55;;;;;;;;;;13115283;22;20401;-96
2024/02/15 03:01:06;;;;;;;40.15;23.77;;;;;;;;;;13114729;22;20363;-96
2024/02/15 03:06:08;;;;;;;43.03;22.80;;;;;;;;;;13135130;22;20649;-94
2024/02/15 03:11:14;;;;;;;42.97;23.40;;;;;;;;;;13119506;22;20469;-96
2024/02/15 03:16:17;;;;;;;41.35;22.48;;;;;;;;;;13109286;22;20371;-96
2024/02/15 03:21:20;;;;;;;40.92;22.33;;;;;;;;;;13128074;22;20355;-95
2024/02/15 03:26:31;;;;;;;39.88;22.30;;;;;;;;;;13116303;22;20395;-96
2024/02/15 03:31:36;;;;;;;38.90;22.50;;;;;;;;;;13115214;22;20434;-96
2024/02/15 03:36:38;;;;;;;41.40;22.52;;;;;;;;;;13115235;22;20698;-96
2024/02/15 03:41:42;;;;;;;41.17;22.33;;;;;;;;;;13114267;22;20734;-95
2024/02/15 03:46:50;;;;;;;41.70;22.13;;;;;;;;;;13113991;22;20542;-96
2024/02/15 03:51:54;;;;;;;37.35;21.02;;;;;;;;;;13113672;22;20364;-96
2024/02/15 03:56:58;;;;;;;37.13;22.08;;;;;;;;;;13114082;22;20384;-96
2024/02/15 04:02:02;;;;;;;39.45;21.83;;;;;;;;;;13113226;22;20411;-95
2024/02/15 04:07:05;;;;;;;39.30;22.73;;;;;;;;;;13112399;22;20684;-95
2024/02/15 04:12:10;;;;;;;42.50;23.60;;;;;;;;;;13113706;22;20383;-95
2024/02/15 04:17:13;;;;;;;36.77;22.00;;;;;;;;;;13113538;22;20409;-95
2024/02/15 04:22:16;;;;;;;36.97;21.63;;;;;;;;;;13135314;22;20815;-95
2024/02/15 04:27:20;;;;;;;39.60;21.98;;;;;;;;;;13121620;22;20355;-96
2024/02/15 04:32:23;;;;;;;37.50;22.15;;;;;;;;;;13114054;22;20413;-96
2024/02/15 04:37:28;;;;;;;41.35;23.77;;;;;;;;;;13128204;22;20363;-96
2024/02/15 04:42:34;;;;;;;39.30;21.47;;;;;;;;;;13112322;22;20493;-95
2024/02/15 04:47:36;;;;;;;37.47;21.63;;;;;;;;;;13113524;22;20420;-96
2024/02/15 04:52:38;;;;;;;37.38;20.80;;;;;;;;;;13112686;22;20448;-96
2024/02/15 04:57:42;;;;;;;35.65;20.52;;;;;;;;;;13112472;22;20363;-95
2024/02/15 05:02:44;;;;;;;40.83;20.90;;;;;;;;;;13113690;22;20868;-95
2024/02/15 05:07:48;;;;;;;37.63;21.08;;;;;;;;;;13118283;22;20366;-96
2024/02/15 05:12:53;;;;;;;36.97;21.38;;;;;;;;;;13116942;22;20416;-96
2024/02/15 05:17:56;;;;;;;37.35;21.67;;;;;;;;;;13117829;22;20385;-96
2024/02/15 05:22:58;;;;;;;36.67;21.48;;;;;;;;;;13116804;22;20657;-96
2024/02/15 05:28:03;;;;;;;38.95;22.33;;;;;;;;;;13138442;22;20380;-96
2024/02/15 05:33:10;;;;;;;33.83;20.87;;;;;;;;;;13114584;22;20503;-96
2024/02/15 05:38:15;;;;;;;33.58;20.90;;;;;;;;;;13134351;22;20417;-95
2024/02/15 05:43:19;;;;;;;36.72;20.63;;;;;;;;;;13126483;22;20380;-96
2024/02/15 05:48:22;;;;;;;34.13;21.08;;;;;;;;;;13113669;22;20363;-96
2024/02/15 05:53:24;;;;;;;39.97;23.08;;;;;;;;;;13125904;22;20767;-93
2024/02/15 05:58:28;;;;;;;44.95;22.70;;;;;;;;;;13114853;22;20819;-91
2024/02/15 06:03:32;;;;;;;42.83;24.13;;;;;;;;;;13112747;22;20712;-93
2024/02/15 06:08:34;;;;;;;36.70;22.67;;;;;;;;;;13112274;22;20461;-92
2024/02/15 06:13:38;;;;;;;52.55;27.40;;;;;;;;;;13110142;22;20439;-92
2024/02/15 06:18:40;;;;;;;45.10;24.52;;;;;;;;;;13111738;22;20458;-92
2024/02/15 06:23:43;;;;;;;47.20;24.10;;;;;;;;;;13110357;22;20364;-94
2024/02/15 06:39:40;;;;;;;41.58;22.98;;;;;;;;;;13131074;22;20404;-96
2024/02/15 06:44:45;;;;;;;40.90;22.77;;;;;;;;;;13133007;22;20411;-96
2024/02/15 06:49:50;;;;;;;38.17;21.10;;;;;;;;;;13129239;22;20466;-96
2024/02/15 06:54:52;;;;;;;40.83;22.73;;;;;;;;;;13145966;22;20434;-95
2024/02/15 06:59:56;;;;;;;39.75;24.23;;;;;;;;;;13144909;22;20749;-94
2024/02/15 07:04:59;;;;;;;40.97;24.08;;;;;;;;;;13137711;22;20359;-95
2024/02/15 07:10:02;;;;;;;45.13;23.23;;;;;;;;;;13142794;22;20846;-96
2024/02/15 07:15:08;;;;;;;41.83;22.08;;;;;;;;;;13138729;22;20433;-95
2024/02/15 07:20:17;;;;;;;36.65;21.75;;;;;;;;;;13137515;22;20434;-95
2024/02/15 07:25:19;;;;;;;40.13;21.85;;;;;;;;;;13140331;22;20515;-95
2024/02/15 07:30:23;;;;;;;36.20;21.73;;;;;;;;;;13141203;22;20396;-95
2024/02/15 07:35:25;;;;;;;37.40;21.27;;;;;;;;;;13138723;22;20426;-96
2024/02/15 07:40:28;;;;;;;38.70;21.45;;;;;;;;;;13137321;22;20400;-96
2024/02/15 07:45:35;;;;;;;37.50;20.80;;;;;;;;;;13139469;22;20363;-95
2024/02/15 07:50:38;;;;;;;38.08;21.48;;;;;;;;;;13139860;22;20363;-95
2024/02/15 07:55:41;;;;;;;39.10;21.40;;;;;;;;;;13140010;22;20367;-96
2024/02/15 08:00:45;;;;;;;33.67;21.02;;;;;;;;;;13143402;22;20393;-95
2024/02/15 08:05:47;;;;;;;39.93;21.63;;;;;;;;;;13143752;22;20359;-95
2024/02/15 08:10:51;;;;;;;32.05;18.38;;;;;;;;;;13143692;22;20371;-95
2024/02/15 08:15:55;;;;;;;31.13;17.80;;;;;;;;;;13142419;22;20347;-95
2024/02/15 08:20:58;;;;;;;32.13;17.80;;;;;;;;;;13144411;22;20359;-95
2024/02/15 08:26:01;;;;;;;33.67;17.73;;;;;;;;;;13164190;22;20400;-95
2024/02/15 08:31:07;;;;;;;31.80;18.20;;;;;;;;;;13141196;22;20397;-95
2024/02/15 08:36:10;;;;;;;30.27;17.08;;;;;;;;;;13154428;22;20363;-95
2024/02/15 08:41:14;;;;;;;33.25;17.33;;;;;;;;;;13148134;22;20348;-95
2024/02/15 08:46:19;;;;;;;31.52;17.10;;;;;;;;;;13142858;22;20348;-96
2024/02/15 08:51:22;;;;;;;34.50;17.42;;;;;;;;;;13146089;22;20375;-95
2024/02/15 08:56:25;;;;;;;30.87;16.90;;;;;;;;;;13142574;22;20816;-95
2024/02/15 09:01:30;;;;;;;36.20;18.73;;;;;;;;;;13163267;22;20351;-96
2024/02/15 09:06:32;;;;;;;44.65;20.20;;;;;;;;;;13140927;22;20421;-96
2024/02/15 09:11:35;;;;;;;35.60;19.52;;;;;;;;;;13140590;22;20363;-96
2024/02/15 09:16:40;;;;;;;39.97;18.73;;;;;;;;;;13162030;22;20412;-96
2024/02/15 09:21:42;;;;;;;37.13;18.10;;;;;;;;;;13140498;22;20363;-95
2024/02/15 09:26:45;;;;;;;36.55;17.63;;;;;;;;;;13163856;22;20385;-96
2024/02/15 09:31:49;;;;;;;29.80;15.98;;;;;;;;;;13144944;22;20371;-95
2024/02/15 09:36:52;;;;;;;29.77;15.85;;;;;;;;;;13136910;22;20385;-96
2024/02/15 09:41:58;;;;;;;30.38;16.67;;;;;;;;;;13145103;22;20827;-95
2024/02/15 09:47:05;;;;;;;32.10;16.95;;;;;;;;;;13143299;22;20351;-96
2024/02/15 09:52:11;;;;;;;29.40;16.35;;;;;;;;;;13150050;22;20375;-95
2024/02/15 09:57:13;;;;;;;30.83;17.80;;;;;;;;;;13151583;22;20355;-96
2024/02/15 10:02:18;;;;;;;32.42;17.90;;;;;;;;;;13146720;22;20380;-96
2024/02/15 10:07:21;;;;;;;30.67;17.02;;;;;;;;;;13176459;22;20355;-96
2024/02/15 10:12:27;;;;;;;34.92;16.45;;;;;;;;;;13171005;22;20389;-95
2024/02/15 10:17:35;;;;;;;28.50;16.67;;;;;;;;;;13149658;22;20381;-96
2024/02/15 10:22:37;;;;;;;27.13;15.77;;;;;;;;;;13150184;22;20344;-96
2024/02/15 10:27:42;;;;;;;27.73;17.00;;;;;;;;;;13148545;22;20399;-96
2024/02/15 10:32:48;;;;;;;32.28;17.50;;;;;;;;;;13149136;22;20407;-95
2024/02/15 10:37:51;;;;;;;35.13;19.60;;;;;;;;;;13171974;22;20417;-96
2024/02/15 10:42:56;;;;;;;29.02;16.10;;;;;;;;;;13150226;22;20382;-96
2024/02/15 10:48:00;;;;;;;30.52;15.93;;;;;;;;;;13146040;22;20359;-96
2024/02/15 10:53:13;;;;;;;29.92;16.42;;;;;;;;;;13147773;22;20375;-96
2024/02/15 10:58:22;;;;;;;26.77;14.00;;;;;;;;;;13149375;22;20351;-96
2024/02/15 11:03:32;;;;;;;30.58;16.92;;;;;;;;;;13169432;22;20425;-96
2024/02/15 11:08:36;;;;;;;30.45;17.65;;;;;;;;;;13164485;22;20390;-96
2024/02/15 11:13:38;;;;;;;31.55;18.27;;;;;;;;;;13160634;22;20456;-96
2024/02/15 11:18:48;;;;;;;31.77;18.43;;;;;;;;;;13147467;22;20359;-96
2024/02/15 11:23:50;;;;;;;30.00;19.17;;;;;;;;;;13163242;22;20359;-96
2024/02/15 11:28:54;;;;;;;29.53;18.03;;;;;;;;;;13166040;22;20385;-96
2024/02/15 11:33:58;;;;;;;30.90;19.15;;;;;;;;;;13148865;22;20367;-96
2024/02/15 11:39:04;;;;;;;28.75;18.02;;;;;;;;;;13149485;22;20389;-95
2024/02/15 11:44:07;;;;;;;32.05;18.65;;;;;;;;;;13149491;22;20351;-96
2024/02/15 11:49:18;;;;;;;39.65;23.58;;;;;;;;;;13148769;22;20355;-95
2024/02/15 11:54:21;;;;;;;40.58;23.88;;;;;;;;;;13146404;22;20379;-96
2024/02/15 11:59:31;;;;;;;44.75;25.60;;;;;;;;;;13146164;22;20359;-96
2024/02/15 12:20:41;;;;;;;29.10;17.63;;;;;;;;;;13159103;22;20363;-95
2024/02/15 12:25:43;;;;;;;44.78;28.70;;;;;;;;;;13150694;22;20359;-93
2024/02/15 12:30:46;;;;;;;32.88;18.08;;;;;;;;;;13132995;22;20359;-95
2024/02/15 12:35:51;;;;;;;40.50;24.03;;;;;;;;;;13111307;22;20928;-93
2024/02/15 12:40:53;;;;;;;37.15;23.67;;;;;;;;;;13140266;22;20691;-94
2024/02/15 12:45:56;;;;;;;37.40;22.88;;;;;;;;;;13111201;22;20363;-93
2024/02/15 12:51:00;;;;;;;42.13;24.98;;;;;;;;;;13132905;22;20367;-94
2024/02/15 12:56:04;;;;;;;42.58;22.45;;;;;;;;;;13110643;22;20429;-94
2024/02/15 13:01:06;;;;;;;47.97;24.85;;;;;;;;;;13110582;22;20359;-94
2024/02/15 13:06:10;;;;;;;41.10;24.30;;;;;;;;;;13111732;22;20359;-94
2024/02/15 13:11:15;;;;;;;47.63;26.10;;;;;;;;;;13111131;22;20355;-93
2024/02/15 13:16:17;;;;;;;48.90;31.52;;;;;;;;;;13109756;22;20379;-94
2024/02/15 13:21:24;;;;;;;47.83;26.43;;;;;;;;;;13109744;22;20363;-94
2024/02/15 13:26:26;;;;;;;44.83;26.38;;;;;;;;;;13111519;22;20355;-94
2024/02/15 13:31:30;;;;;;;44.80;26.67;;;;;;;;;;13114562;22;20867;-95
2024/02/15 13:36:34;;;;;;;49.28;27.35;;;;;;;;;;13112860;22;20842;-94
2024/02/15 13:41:36;;;;;;;47.80;27.35;;;;;;;;;;13136697;22;20389;-93
2024/02/15 13:46:39;;;;;;;49.33;27.80;;;;;;;;;;13130010;22;20440;-94
2024/02/15 13:51:44;;;;;;;48.93;28.47;;;;;;;;;;13114195;22;20385;-94
2024/02/15 13:56:46;;;;;;;48.35;28.35;;;;;;;;;;13129726;22;20405;-94
2024/02/15 14:01:49;;;;;;;48.10;28.33;;;;;;;;;;13112867;22;20363;-94
2024/02/15 14:06:56;;;;;;;55.17;30.23;;;;;;;;;;13114151;22;20359;-94
2024/02/15 14:11:58;;;;;;;51.50;28.67;;;;;;;;;;13112307;22;20424;-94
2024/02/15 14:17:00;;;;;;;46.70;29.48;;;;;;;;;;13113315;22;20410;-94
2024/02/15 14:22:08;;;;;;;52.10;28.30;;;;;;;;;;13135383;22;20363;-93
2024/02/15 14:27:11;;;;;;;49.35;27.83;;;;;;;;;;13113127;22;20425;-93
2024/02/15 14:37:34;;;;;;;47.85;28.02;;;;;;;;;;13134691;22;20819;-94
2024/02/15 14:42:38;;;;;;;47.08;27.58;;;;;;;;;;13112469;22;20359;-94
2024/02/15 14:47:42;;;;;;;48.88;28.38;;;;;;;;;;13112860;22;20413;-94
2024/02/15 14:52:45;;;;;;;52.35;28.02;;;;;;;;;;13112603;22;20843;-94
2024/02/15 14:57:48;;;;;;;45.60;27.97;;;;;;;;;;13133408;22;20367;-94
2024/02/15 15:02:50;;;;;;;46.38;28.45;;;;;;;;;;13112482;22;20364;-94
2024/02/15 15:13:14;;;;;;;47.95;28.33;;;;;;;;;;13126784;22;20768;-92
2024/02/15 15:18:17;;;;;;;49.87;27.77;;;;;;;;;;13102501;22;20355;-93
2024/02/15 15:23:22;;;;;;;47.67;27.38;;;;;;;;;;13103892;22;20444;-93
2024/02/15 15:28:24;;;;;;;48.15;30.08;;;;;;;;;;13102315;22;20696;-91
2024/02/15 15:33:27;;;;;;;53.50;31.05;;;;;;;;;;13103877;22;20383;-91
2024/02/15 15:38:31;;;;;;;49.70;30.95;;;;;;;;;;13101506;22;20359;-91
2024/02/15 15:43:33;;;;;;;49.80;30.43;;;;;;;;;;13102010;22;20687;-92
2024/02/15 15:48:36;;;;;;;51.60;31.50;;;;;;;;;;13101977;22;20352;-92
2024/02/15 15:53:40;;;;;;;51.10;29.35;;;;;;;;;;13099421;22;20379;-93
2024/02/15 15:58:44;;;;;;;55.77;32.00;;;;;;;;;;13100987;22;20359;-92
2024/02/15 16:03:50;;;;;;;58.22;32.63;;;;;;;;;;13100766;22;20359;-92
2024/02/15 16:08:54;;;;;;;52.87;29.93;;;;;;;;;;13100489;22;20917;-92
2024/02/15 16:13:56;;;;;;;52.30;30.75;;;;;;;;;;13102544;22;20375;-91
2024/02/15 16:18:59;;;;;;;54.15;30.92;;;;;;;;;;13100597;22;20375;-92
2024/02/15 16:24:03;;;;;;;52.17;30.90;;;;;;;;;;13101746;22;20417;-92
2024/02/15 16:29:06;;;;;;;49.72;29.85;;;;;;;;;;13101972;22;20367;-91
2024/02/15 16:34:08;;;;;;;53.10;32.17;;;;;;;;;;13108633;22;20440;-92
2024/02/15 16:39:12;;;;;;;52.88;31.92;;;;;;;;;;13099602;22;20448;-89
2024/02/15 16:44:15;;;;;;;56.45;31.65;;;;;;;;;;13096197;22;20444;-91
2024/02/15 16:49:17;;;;;;;60.27;32.93;;;;;;;;;;13103699;22;20367;-93
2024/02/15 16:54:21;;;;;;;55.83;32.33;;;;;;;;;;13102284;22;20375;-93
2024/02/15 16:59:24;;;;;;;58.08;33.03;;;;;;;;;;13103786;22;20386;-93
2024/02/15 17:04:26;;;;;;;55.15;31.55;;;;;;;;;;13103040;22;20433;-90
2024/02/15 17:09:30;;;;;;;56.78;34.03;;;;;;;;;;13116799;22;20846;-89
2024/02/15 17:14:32;;;;;;;60.47;34.50;;;;;;;;;;13103986;22;20371;-90
2024/02/15 17:19:37;;;;;;;62.47;36.53;;;;;;;;;;13103348;22;20371;-90
2024/02/15 17:24:43;;;;;;;67.32;37.22;;;;;;;;;;13124328;22;20363;-90
2024/02/15 17:29:45;;;;;;;69.73;37.57;;;;;;;;;;13141155;22;20359;-90
2024/02/15 17:34:47;;;;;;;68.07;38.67;;;;;;;;;;13114616;22;20386;-90
2024/02/15 17:39:51;;;;;;;63.20;35.43;;;;;;;;;;13104204;22;20389;-91
2024/02/15 17:44:54;;;;;;;67.53;37.88;;;;;;;;;;13115342;22;20371;-91
2024/02/15 17:49:57;;;;;;;68.85;38.03;;;;;;;;;;13103304;22;20367;-88
2024/02/15 17:55:00;;;;;;;71.23;39.10;;;;;;;;;;13101777;22;20869;-94
2024/02/15 18:00:04;;;;;;;70.55;40.35;;;;;;;;;;13106743;22;20374;-89
2024/02/15 18:05:07;;;;;;;85.78;39.38;;;;;;;;;;13102643;22;20436;-94
2024/02/15 18:10:11;;;;;;;84.65;39.17;;;;;;;;;;13103874;22;20378;-86
2024/02/15 18:15:22;;;;;;;76.65;39.80;;;;;;;;;;13100837;22;20862;-85
2024/02/15 18:20:25;;;;;;;70.23;37.60;;;;;;;;;;13099153;22;20402;-85
2024/02/15 18:25:28;;;;;;;74.82;39.15;;;;;;;;;;13098315;22;20417;-86
2024/02/15 18:30:33;;;;;;;72.35;37.80;;;;;;;;;;13098390;22;20355;-84
2024/02/15 18:35:35;;;;;;;70.67;36.10;;;;;;;;;;13098482;22;20536;-96
2024/02/15 18:40:39;;;;;;;72.03;39.93;;;;;;;;;;13105785;22;20368;-80
2024/02/15 18:45:42;;;;;;;76.93;39.97;;;;;;;;;;13094043;22;21018;-86
2024/02/15 18:50:45;;;;;;;79.25;42.45;;;;;;;;;;13091671;22;20379;-83
2024/02/15 18:55:49;;;;;;;73.70;41.92;;;;;;;;;;13100714;22;20441;-86
2024/02/15 19:00:51;;;;;;;77.50;41.88;;;;;;;;;;13105674;22;20437;-86
2024/02/15 19:05:54;;;;;;;79.00;43.53;;;;;;;;;;13096828;22;20456;-84
2024/02/15 19:10:58;;;;;;;75.65;43.35;;;;;;;;;;13098153;22;20761;-86
2024/02/15 19:16:07;;;;;;;81.90;43.63;;;;;;;;;;13097919;22;20452;-85
2024/02/15 19:21:09;;;;;;;81.90;44.03;;;;;;;;;;13113760;22;20413;-86
2024/02/15 19:26:13;;;;;;;77.20;40.97;;;;;;;;;;13094462;22;20372;-86
2024/02/15 19:31:16;;;;;;;79.53;42.30;;;;;;;;;;13095477;22;20433;-86
2024/02/15 19:36:24;;;;;;;79.47;42.42;;;;;;;;;;13098273;22;20375;-87
2024/02/15 19:41:28;;;;;;;78.70;42.42;;;;;;;;;;13094527;22;20433;-85
2024/02/15 19:46:31;;;;;;;77.35;42.42;;;;;;;;;;13093883;22;20371;-86
2024/02/15 19:51:35;;;;;;;79.57;41.55;;;;;;;;;;13098119;22;20758;-86
2024/02/15 19:56:38;;;;;;;80.47;42.88;;;;;;;;;;13096692;22;20387;-79
2024/02/15 20:01:43;;;;;;;78.22;42.22;;;;;;;;;;13096252;22;20437;-86
2024/02/15 20:06:47;;;;;;;77.17;41.13;;;;;;;;;;13093582;22;20449;-87
2024/02/15 20:11:50;;;;;;;77.60;41.00;;;;;;;;;;13094601;22;20476;-87
2024/02/15 20:16:54;;;;;;;77.40;42.43;;;;;;;;;;13106412;22;20907;-86
2024/02/15 20:21:56;;;;;;;88.03;44.55;;;;;;;;;;13097645;22;20413;-86
2024/02/15 20:27:00;;;;;;;79.68;41.15;;;;;;;;;;13102376;22;20375;-88
2024/02/15 20:32:04;;;;;;;78.28;41.72;;;;;;;;;;13102295;22;20371;-87
2024/02/15 20:37:06;;;;;;;83.88;42.90;;;;;;;;;;13120305;22;20692;-87
2024/02/15 20:42:10;;;;;;;86.72;43.28;;;;;;;;;;13122160;22;20428;-87
2024/02/15 20:47:12;;;;;;;76.70;41.20;;;;;;;;;;13101497;22;20452;-87
2024/02/15 20:52:15;;;;;;;76.57;40.40;;;;;;;;;;13102743;22;20684;-87
2024/02/15 20:57:19;;;;;;;76.38;40.20;;;;;;;;;;13102035;22;20383;-87
2024/02/15 21:02:23;;;;;;;79.32;41.00;;;;;;;;;;13108661;22;20426;-85
2024/02/15 21:07:25;;;;;;;76.80;40.13;;;;;;;;;;13102283;22;20375;-87
2024/02/15 21:12:29;;;;;;;80.13;42.53;;;;;;;;;;13103117;22;20850;-88
2024/02/15 21:17:31;;;;;;;75.22;40.42;;;;;;;;;;13100072;22;20429;-88
2024/02/15 21:22:33;;;;;;;86.03;42.83;;;;;;;;;;13103453;22;20406;-87
2024/02/15 21:27:38;;;;;;;79.65;41.75;;;;;;;;;;13103704;22;20972;-87
2024/02/15 21:32:43;;;;;;;74.20;40.87;;;;;;;;;;13102903;22;20432;-87
2024/02/15 21:37:47;;;;;;;84.05;43.17;;;;;;;;;;13122793;22;20367;-87
2024/02/15 21:42:52;;;;;;;78.60;43.03;;;;;;;;;;13103877;22;20371;-87
2024/02/15 21:47:54;;;;;;;77.60;44.40;;;;;;;;;;13103785;22;20417;-87
2024/02/15 21:52:57;;;;;;;83.00;43.92;;;;;;;;;;13101279;22;20375;-88
2024/02/15 21:58:01;;;;;;;83.97;45.60;;;;;;;;;;13113733;22;20375;-86
2024/02/15 22:03:04;;;;;;;92.85;49.75;;;;;;;;;;13105426;22;20379;-87
2024/02/15 22:08:07;;;;;;;93.43;49.75;;;;;;;;;;13104574;22;20429;-87
2024/02/15 22:13:13;;;;;;;97.60;51.83;;;;;;;;;;13105880;22;20371;-88
2024/02/15 22:18:16;;;;;;;90.05;48.75;;;;;;;;;;13104073;22;20383;-86
2024/02/15 22:23:19;;;;;;;85.15;46.75;;;;;;;;;;13120216;22;20375;-87
2024/02/15 22:28:23;;;;;;;89.10;48.63;;;;;;;;;;13103316;22;20383;-85
2024/02/15 22:33:26;;;;;;;93.97;50.63;;;;;;;;;;13104769;22;20452;-87
2024/02/15 22:38:29;;;;;;;87.97;50.40;;;;;;;;;;13111994;22;20835;-87
2024/02/15 22:43:34;;;;;;;96.10;52.03;;;;;;;;;;13113634;22;20351;-87
2024/02/15 22:48:36;;;;;;;93.55;51.58;;;;;;;;;;13135061;22;20351;-86
2024/02/15 22:53:41;;;;;;;95.53;51.70;;;;;;;;;;13112479;22;20469;-87
2024/02/15 22:58:45;;;;;;;92.63;51.25;;;;;;;;;;13134546;22;20375;-87
2024/02/15 23:03:47;;;;;;;89.85;49.42;;;;;;;;;;13113333;22;20364;-88
2024/02/15 23:08:49;;;;;;;91.88;49.85;;;;;;;;;;13135482;22;20363;-87
2024/02/15 23:13:54;;;;;;;90.47;51.33;;;;;;;;;;13135521;22;20831;-88
2024/02/15 23:18:56;;;;;;;90.80;50.15;;;;;;;;;;13134501;22;20402;-87
2024/02/15 23:23:59;;;;;;;93.70;50.57;;;;;;;;;;13111882;22;20363;-87
2024/02/15 23:29:02;;;;;;;93.47;51.83;;;;;;;;;;13110732;22;20356;-86
2024/02/15 23:34:05;;;;;;;87.88;49.70;;;;;;;;;;13112719;22;20735;-87
2024/02/15 23:44:34;;;;;;;91.07;48.70;;;;;;;;;;13018907;22;20664;-86
2024/02/15 23:49:36;;;;;;;88.40;48.85;;;;;;;;;;13113224;22;20414;-87
2024/02/15 23:54:38;;;;;;;88.43;49.13;;;;;;;;;;13111945;22;20364;-87
2024/02/15 23:59:42;;;;;;;89.07;46.77;;;;;;;;;;13111249;22;20441;-87
